sensor_id;sensor_type;location;lat;lon;timestamp;pressure;altitude;pressure_sealevel;temperature
64600;BMP280;6553;48.412;9.514;2023-04-19T00:00:40;71644.84;;;19.70
64600;BMP280;6553;48.412;9.514;2023-04-19T00:03:06;71639.94;;;19.68
64600;BMP280;6553;48.412;9.514;2023-04-19T00:05:32;71645.47;;;19.68
64600;BMP280;6553;48.412;9.514;2023-04-19T00:07:59;71645.91;;;19.71
64600;BMP280;6553;48.412;9.514;2023-04-19T00:10:25;71646.41;;;19.71
64600;BMP280;6553;48.412;9.514;2023-04-19T00:12:51;71648.13;;;19.70
64600;BMP280;6553;48.412;9.514;2023-04-19T00:15:18;71637.81;;;19.66
64600;BMP280;6553;48.412;9.514;2023-04-19T00:17:43;71647.63;;;19.70
64600;BMP280;6553;48.412;9.514;2023-04-19T00:20:10;71643.78;;;19.69
64600;BMP280;6553;48.412;9.514;2023-04-19T00:22:38;71642.16;;;19.67
64600;BMP280;6553;48.412;9.514;2023-04-19T00:25:04;71650.91;;;19.70
64600;BMP280;6553;48.412;9.514;2023-04-19T00:27:31;71646.00;;;19.68
64600;BMP280;6553;48.412;9.514;2023-04-19T00:29:58;71640.47;;;19.68
64600;BMP280;6553;48.412;9.514;2023-04-19T00:32:24;71642.16;;;19.67
64600;BMP280;6553;48.412;9.514;2023-04-19T00:34:50;71642.06;;;19.70
64600;BMP280;6553;48.412;9.514;2023-04-19T00:37:16;71641.53;;;19.69
64600;BMP280;6553;48.412;9.514;2023-04-19T00:39:41;71641.00;;;19.69
64600;BMP280;6553;48.412;9.514;2023-04-19T00:42:07;71637.81;;;19.66
64600;BMP280;6553;48.412;9.514;2023-04-19T00:44:33;71638.38;;;19.66
64600;BMP280;6553;48.412;9.514;2023-04-19T00:47:00;71647.69;;;19.67
64600;BMP280;6553;48.412;9.514;2023-04-19T00:49:26;71640.59;;;19.66
64600;BMP280;6553;48.412;9.514;2023-04-19T00:51:53;71646.00;;;19.68
64600;BMP280;6553;48.412;9.514;2023-04-19T00:54:19;71644.31;;;19.69
64600;BMP280;6553;48.412;9.514;2023-04-19T00:56:48;71646.00;;;19.68
64600;BMP280;6553;48.412;9.514;2023-04-19T00:59:17;71643.25;;;19.68
64600;BMP280;6553;48.412;9.514;2023-04-19T01:01:42;71642.81;;;19.65
64600;BMP280;6553;48.412;9.514;2023-04-19T01:04:08;71647.06;;;19.69
64600;BMP280;6553;48.412;9.514;2023-04-19T01:06:35;71644.31;;;19.69
64600;BMP280;6553;48.412;9.514;2023-04-19T01:09:01;71636.22;;;19.64
64600;BMP280;6553;48.412;9.514;2023-04-19T01:11:27;71645.47;;;19.68
64600;BMP280;6553;48.412;9.514;2023-04-19T01:13:57;71648.66;;;19.71
64600;BMP280;6553;48.412;9.514;2023-04-19T01:16:25;71642.69;;;19.68
64600;BMP280;6553;48.412;9.514;2023-04-19T01:18:51;71640.47;;;19.68
64600;BMP280;6553;48.412;9.514;2023-04-19T01:21:19;71647.06;;;19.69
64600;BMP280;6553;48.412;9.514;2023-04-19T01:23:47;71641.66;;;19.67
64600;BMP280;6553;48.412;9.514;2023-04-19T01:26:14;71641.66;;;19.67
64600;BMP280;6553;48.412;9.514;2023-04-19T01:28:40;71643.91;;;19.66
64600;BMP280;6553;48.412;9.514;2023-04-19T01:31:08;71643.25;;;19.68
64600;BMP280;6553;48.412;9.514;2023-04-19T01:33:35;71636.75;;;19.65
64600;BMP280;6553;48.412;9.514;2023-04-19T01:36:01;71638.44;;;19.63
64600;BMP280;6553;48.412;9.514;2023-04-19T01:38:27;71641.75;;;19.64
64600;BMP280;6553;48.412;9.514;2023-04-19T01:40:53;71635.69;;;19.63
64600;BMP280;6553;48.412;9.514;2023-04-19T01:43:21;71636.34;;;19.62
64600;BMP280;6553;48.412;9.514;2023-04-19T01:45:47;71643.38;;;19.66
64600;BMP280;6553;48.412;9.514;2023-04-19T01:48:12;71635.69;;;19.63
64600;BMP280;6553;48.412;9.514;2023-04-19T01:50:38;71635.16;;;19.63
64600;BMP280;6553;48.412;9.514;2023-04-19T01:53:04;71643.44;;;19.63
64600;BMP280;6553;48.412;9.514;2023-04-19T01:55:31;71644.94;;;19.67
64600;BMP280;6553;48.412;9.514;2023-04-19T01:57:57;71637.81;;;19.66
64600;BMP280;6553;48.412;9.514;2023-04-19T02:00:23;71647.06;;;19.69
64600;BMP280;6553;48.412;9.514;2023-04-19T02:02:48;71643.38;;;19.66
64600;BMP280;6553;48.412;9.514;2023-04-19T02:05:14;71636.75;;;19.65
64600;BMP280;6553;48.412;9.514;2023-04-19T02:07:40;71640.47;;;19.68
64600;BMP280;6553;48.412;9.514;2023-04-19T02:10:09;71636.22;;;19.64
64600;BMP280;6553;48.412;9.514;2023-04-19T02:12:36;71639.41;;;19.67
64600;BMP280;6553;48.412;9.514;2023-04-19T02:15:03;71635.69;;;19.63
64600;BMP280;6553;48.412;9.514;2023-04-19T02:17:29;71646.00;;;19.68
64600;BMP280;6553;48.412;9.514;2023-04-19T02:19:55;71635.16;;;19.63
64600;BMP280;6553;48.412;9.514;2023-04-19T02:22:21;71635.16;;;19.63
64600;BMP280;6553;48.412;9.514;2023-04-19T02:24:49;71640.59;;;19.66
64600;BMP280;6553;48.412;9.514;2023-04-19T02:27:16;71640.47;;;19.68
64600;BMP280;6553;48.412;9.514;2023-04-19T02:29:43;71636.88;;;19.62
64600;BMP280;6553;48.412;9.514;2023-04-19T02:32:11;71642.41;;;19.62
64600;BMP280;6553;48.412;9.514;2023-04-19T02:34:37;71637.41;;;19.63
64600;BMP280;6553;48.412;9.514;2023-04-19T02:37:03;71645.47;;;19.68
64600;BMP280;6553;48.412;9.514;2023-04-19T02:39:29;71640.69;;;19.63
64600;BMP280;6553;48.412;9.514;2023-04-19T02:41:56;71639.66;;;19.62
64600;BMP280;6553;48.412;9.514;2023-04-19T02:44:22;71638.44;;;19.63
64600;BMP280;6553;48.412;9.514;2023-04-19T02:46:51;71644.94;;;19.67
64600;BMP280;6553;48.412;9.514;2023-04-19T02:49:19;71638.38;;;19.66
64600;BMP280;6553;48.412;9.514;2023-04-19T02:51:45;71637.91;;;19.63
64600;BMP280;6553;48.412;9.514;2023-04-19T02:54:13;71642.81;;;19.65
64600;BMP280;6553;48.412;9.514;2023-04-19T02:56:40;71639.66;;;19.62
64600;BMP280;6553;48.412;9.514;2023-04-19T02:59:06;71637.91;;;19.63
64600;BMP280;6553;48.412;9.514;2023-04-19T03:01:32;71637.41;;;19.63
64600;BMP280;6553;48.412;9.514;2023-04-19T03:04:02;71636.22;;;19.64
64600;BMP280;6553;48.412;9.514;2023-04-19T03:06:27;71642.41;;;19.62
64600;BMP280;6553;48.412;9.514;2023-04-19T03:08:53;71640.16;;;19.63
64600;BMP280;6553;48.412;9.514;2023-04-19T03:11:20;71644.53;;;19.64
64600;BMP280;6553;48.412;9.514;2023-04-19T03:13:46;71639.13;;;19.62
64600;BMP280;6553;48.412;9.514;2023-04-19T03:16:13;71639.66;;;19.62
64600;BMP280;6553;48.412;9.514;2023-04-19T03:18:40;71631.97;;;19.60
64600;BMP280;6553;48.412;9.514;2023-04-19T03:21:06;71636.97;;;19.59
64600;BMP280;6553;48.412;9.514;2023-04-19T03:23:44;71635.81;;;19.61
64600;BMP280;6553;48.412;9.514;2023-04-19T03:26:10;71636.34;;;19.62
64600;BMP280;6553;48.412;9.514;2023-04-19T03:28:40;71638.56;;;19.61
64600;BMP280;6553;48.412;9.514;2023-04-19T03:31:32;71635.16;;;19.63
64600;BMP280;6553;48.412;9.514;2023-04-19T03:33:58;71637.28;;;19.65
64600;BMP280;6553;48.412;9.514;2023-04-19T03:36:34;71636.34;;;19.62
64600;BMP280;6553;48.412;9.514;2023-04-19T03:39:01;71636.22;;;19.64
64600;BMP280;6553;48.412;9.514;2023-04-19T03:41:27;71635.16;;;19.63
64600;BMP280;6553;48.412;9.514;2023-04-19T03:44:12;71640.69;;;19.63
64600;BMP280;6553;48.412;9.514;2023-04-19T03:46:41;71637.28;;;19.65
64600;BMP280;6553;48.412;9.514;2023-04-19T03:49:08;71636.22;;;19.64
64600;BMP280;6553;48.412;9.514;2023-04-19T03:51:34;71639.53;;;19.65
64600;BMP280;6553;48.412;9.514;2023-04-19T03:54:00;71641.22;;;19.63
64600;BMP280;6553;48.412;9.514;2023-04-19T03:56:27;71641.88;;;19.62
64600;BMP280;6553;48.412;9.514;2023-04-19T03:58:53;71638.56;;;19.61
64600;BMP280;6553;48.412;9.514;2023-04-19T04:01:21;71638.44;;;19.63
64600;BMP280;6553;48.412;9.514;2023-04-19T04:03:49;71640.59;;;19.66
64600;BMP280;6553;48.412;9.514;2023-04-19T04:06:16;71637.50;;;19.60
64600;BMP280;6553;48.412;9.514;2023-04-19T04:08:42;71640.16;;;19.63
64600;BMP280;6553;48.412;9.514;2023-04-19T04:11:08;71639.53;;;19.65
64600;BMP280;6553;48.412;9.514;2023-04-19T04:13:34;71646.75;;;19.63
64600;BMP280;6553;48.412;9.514;2023-04-19T04:16:14;71641.22;;;19.63
64600;BMP280;6553;48.412;9.514;2023-04-19T04:18:39;71642.81;;;19.65
64600;BMP280;6553;48.412;9.514;2023-04-19T04:21:09;71639.66;;;19.62
64600;BMP280;6553;48.412;9.514;2023-04-19T04:23:37;71634.75;;;19.60
64600;BMP280;6553;48.412;9.514;2023-04-19T04:26:06;71642.28;;;19.65
64600;BMP280;6553;48.412;9.514;2023-04-19T04:28:57;71637.41;;;19.63
64600;BMP280;6553;48.412;9.514;2023-04-19T04:31:23;71636.88;;;19.62
64600;BMP280;6553;48.412;9.514;2023-04-19T04:33:50;71636.88;;;19.62
64600;BMP280;6553;48.412;9.514;2023-04-19T04:36:20;71635.16;;;19.63
64600;BMP280;6553;48.412;9.514;2023-04-19T04:38:46;71639.66;;;19.62
64600;BMP280;6553;48.412;9.514;2023-04-19T04:41:13;71635.81;;;19.61
64600;BMP280;6553;48.412;9.514;2023-04-19T04:43:38;71633.56;;;19.62
64600;BMP280;6553;48.412;9.514;2023-04-19T04:46:04;71637.41;;;19.63
64600;BMP280;6553;48.412;9.514;2023-04-19T04:48:36;71637.41;;;19.63
64600;BMP280;6553;48.412;9.514;2023-04-19T04:51:04;71641.88;;;19.62
64600;BMP280;6553;48.412;9.514;2023-04-19T04:53:30;71637.91;;;19.63
64600;BMP280;6553;48.412;9.514;2023-04-19T04:55:57;71636.34;;;19.62
64600;BMP280;6553;48.412;9.514;2023-04-19T04:58:23;71638.16;;;19.58
64600;BMP280;6553;48.412;9.514;2023-04-19T05:00:59;71637.41;;;19.63
64600;BMP280;6553;48.412;9.514;2023-04-19T05:03:26;71641.75;;;19.64
64600;BMP280;6553;48.412;9.514;2023-04-19T05:05:56;71634.63;;;19.63
64600;BMP280;6553;48.412;9.514;2023-04-19T05:08:25;71637.50;;;19.60
64600;BMP280;6553;48.412;9.514;2023-04-19T05:10:53;71640.69;;;19.63
64600;BMP280;6553;48.412;9.514;2023-04-19T05:13:22;71636.97;;;19.59
64600;BMP280;6553;48.412;9.514;2023-04-19T05:15:49;71633.69;;;19.59
64600;BMP280;6553;48.412;9.514;2023-04-19T05:18:15;71639.66;;;19.62
64600;BMP280;6553;48.412;9.514;2023-04-19T05:20:41;71635.81;;;19.61
64600;BMP280;6553;48.412;9.514;2023-04-19T05:23:17;71635.69;;;19.63
64600;BMP280;6553;48.412;9.514;2023-04-19T05:25:43;71634.19;;;19.59
64600;BMP280;6553;48.412;9.514;2023-04-19T05:28:09;71630.91;;;19.59
64600;BMP280;6553;48.412;9.514;2023-04-19T05:31:04;71639.00;;;19.64
64600;BMP280;6553;48.412;9.514;2023-04-19T05:33:37;71636.97;;;19.59
64600;BMP280;6553;48.412;9.514;2023-04-19T05:36:03;71636.88;;;19.62
64600;BMP280;6553;48.412;9.514;2023-04-19T05:38:29;71637.91;;;19.63
64600;BMP280;6553;48.412;9.514;2023-04-19T05:40:58;71635.16;;;19.63
64600;BMP280;6553;48.412;9.514;2023-04-19T05:43:23;71637.50;;;19.60
64600;BMP280;6553;48.412;9.514;2023-04-19T05:45:49;71638.56;;;19.61
64600;BMP280;6553;48.412;9.514;2023-04-19T05:48:15;71640.16;;;19.63
64600;BMP280;6553;48.412;9.514;2023-04-19T05:51:16;71637.91;;;19.63
64600;BMP280;6553;48.412;9.514;2023-04-19T05:54:09;71640.06;;;19.65
64600;BMP280;6553;48.412;9.514;2023-04-19T05:56:39;71642.81;;;19.65
64600;BMP280;6553;48.412;9.514;2023-04-19T05:59:05;71641.13;;;19.66
64600;BMP280;6553;48.412;9.514;2023-04-19T06:01:31;71636.75;;;19.65
64600;BMP280;6553;48.412;9.514;2023-04-19T06:03:57;71641.88;;;19.62
64600;BMP280;6553;48.412;9.514;2023-04-19T06:06:23;71642.81;;;19.65
64600;BMP280;6553;48.412;9.514;2023-04-19T06:08:49;71638.44;;;19.63
64600;BMP280;6553;48.412;9.514;2023-04-19T06:11:15;71643.44;;;19.63
64600;BMP280;6553;48.412;9.514;2023-04-19T06:13:41;71638.56;;;19.61
64600;BMP280;6553;48.412;9.514;2023-04-19T06:16:09;71640.16;;;19.63
64600;BMP280;6553;48.412;9.514;2023-04-19T06:18:36;71633.56;;;19.62
64600;BMP280;6553;48.412;9.514;2023-04-19T06:21:02;71641.22;;;19.63
64600;BMP280;6553;48.412;9.514;2023-04-19T06:23:28;71639.66;;;19.62
64600;BMP280;6553;48.412;9.514;2023-04-19T06:25:53;71640.16;;;19.63
64600;BMP280;6553;48.412;9.514;2023-04-19T06:28:19;71635.28;;;19.60
64600;BMP280;6553;48.412;9.514;2023-04-19T06:30:45;71635.16;;;19.63
64600;BMP280;6553;48.412;9.514;2023-04-19T06:33:11;71637.41;;;19.63
64600;BMP280;6553;48.412;9.514;2023-04-19T06:35:37;71640.69;;;19.63
64600;BMP280;6553;48.412;9.514;2023-04-19T06:38:03;71640.69;;;19.63
64600;BMP280;6553;48.412;9.514;2023-04-19T06:40:29;71635.81;;;19.61
64600;BMP280;6553;48.412;9.514;2023-04-19T06:42:55;71637.91;;;19.63
64600;BMP280;6553;48.412;9.514;2023-04-19T06:45:21;71638.56;;;19.61
64600;BMP280;6553;48.412;9.514;2023-04-19T06:47:47;71635.16;;;19.63
64600;BMP280;6553;48.412;9.514;2023-04-19T06:50:13;71641.22;;;19.63
64600;BMP280;6553;48.412;9.514;2023-04-19T06:52:39;71634.75;;;19.60
64600;BMP280;6553;48.412;9.514;2023-04-19T06:55:06;71639.00;;;19.64
64600;BMP280;6553;48.412;9.514;2023-04-19T06:57:32;71642.28;;;19.65
64600;BMP280;6553;48.412;9.514;2023-04-19T06:59:58;71645.06;;;19.65
64600;BMP280;6553;48.412;9.514;2023-04-19T07:02:24;71630.91;;;19.59
64600;BMP280;6553;48.412;9.514;2023-04-19T07:04:50;71636.22;;;19.64
64600;BMP280;6553;48.412;9.514;2023-04-19T07:07:16;71639.13;;;19.62
64600;BMP280;6553;48.412;9.514;2023-04-19T07:09:42;71633.69;;;19.59
64600;BMP280;6553;48.412;9.514;2023-04-19T07:12:07;71640.69;;;19.63
64600;BMP280;6553;48.412;9.514;2023-04-19T07:14:33;71640.69;;;19.63
64600;BMP280;6553;48.412;9.514;2023-04-19T07:16:59;71637.50;;;19.60
64600;BMP280;6553;48.412;9.514;2023-04-19T07:19:25;71638.56;;;19.61
64600;BMP280;6553;48.412;9.514;2023-04-19T07:21:52;71635.81;;;19.61
64600;BMP280;6553;48.412;9.514;2023-04-19T07:24:18;71637.41;;;19.63
64600;BMP280;6553;48.412;9.514;2023-04-19T07:26:44;71639.66;;;19.62
64600;BMP280;6553;48.412;9.514;2023-04-19T07:29:09;71636.34;;;19.62
64600;BMP280;6553;48.412;9.514;2023-04-19T07:31:35;71640.69;;;19.63
64600;BMP280;6553;48.412;9.514;2023-04-19T07:34:01;71637.91;;;19.63
64600;BMP280;6553;48.412;9.514;2023-04-19T07:36:27;71619.31;;;19.58
64600;BMP280;6553;48.412;9.514;2023-04-19T07:38:53;71646.75;;;19.63
64600;BMP280;6553;48.412;9.514;2023-04-19T07:41:18;71636.34;;;19.62
64600;BMP280;6553;48.412;9.514;2023-04-19T07:43:44;71639.66;;;19.62
64600;BMP280;6553;48.412;9.514;2023-04-19T07:46:12;71643.91;;;19.66
64600;BMP280;6553;48.412;9.514;2023-04-19T07:48:38;71640.69;;;19.63
64600;BMP280;6553;48.412;9.514;2023-04-19T07:51:09;71637.28;;;19.65
64600;BMP280;6553;48.412;9.514;2023-04-19T07:53:37;71640.47;;;19.68
64600;BMP280;6553;48.412;9.514;2023-04-19T07:56:04;71644.41;;;19.67
64600;BMP280;6553;48.412;9.514;2023-04-19T07:58:30;71639.00;;;19.64
64600;BMP280;6553;48.412;9.514;2023-04-19T08:00:56;71640.06;;;19.65
64600;BMP280;6553;48.412;9.514;2023-04-19T08:03:22;71644.41;;;19.67
64600;BMP280;6553;48.412;9.514;2023-04-19T08:05:47;71644.53;;;19.64
64600;BMP280;6553;48.412;9.514;2023-04-19T08:08:13;71641.66;;;19.67
64600;BMP280;6553;48.412;9.514;2023-04-19T08:10:39;71640.47;;;19.68
64600;BMP280;6553;48.412;9.514;2023-04-19T08:13:04;71638.38;;;19.66
64600;BMP280;6553;48.412;9.514;2023-04-19T08:15:32;71639.94;;;19.68
64600;BMP280;6553;48.412;9.514;2023-04-19T08:17:58;71648.13;;;19.70
64600;BMP280;6553;48.412;9.514;2023-04-19T08:20:23;71646.66;;;19.66
64600;BMP280;6553;48.412;9.514;2023-04-19T08:22:50;71637.81;;;19.66
64600;BMP280;6553;48.412;9.514;2023-04-19T08:25:15;71645.91;;;19.71
64600;BMP280;6553;48.412;9.514;2023-04-19T08:27:41;71644.31;;;19.69
64600;BMP280;6553;48.412;9.514;2023-04-19T08:30:07;71638.88;;;19.67
64600;BMP280;6553;48.412;9.514;2023-04-19T08:32:33;71649.19;;;19.71
64600;BMP280;6553;48.412;9.514;2023-04-19T08:34:59;71643.78;;;19.69
64600;BMP280;6553;48.412;9.514;2023-04-19T08:37:26;71644.94;;;19.67
64600;BMP280;6553;48.412;9.514;2023-04-19T08:39:52;71650.91;;;19.70
64600;BMP280;6553;48.412;9.514;2023-04-19T08:42:18;71645.78;;;19.73
64600;BMP280;6553;48.412;9.514;2023-04-19T08:44:45;71645.78;;;19.73
64600;BMP280;6553;48.412;9.514;2023-04-19T08:47:12;71651.31;;;19.73
64600;BMP280;6553;48.412;9.514;2023-04-19T08:49:40;71651.84;;;19.74
64600;BMP280;6553;48.412;9.514;2023-04-19T08:52:11;71654.50;;;19.76
64600;BMP280;6553;48.412;9.514;2023-04-19T08:54:38;71655.03;;;19.77
64600;BMP280;6553;48.412;9.514;2023-04-19T08:57:05;71654.63;;;19.74
64600;BMP280;6553;48.412;9.514;2023-04-19T08:59:31;71647.91;;;19.75
64600;BMP280;6553;48.412;9.514;2023-04-19T09:02:01;71649.50;;;19.77
64600;BMP280;6553;48.412;9.514;2023-04-19T09:04:27;71653.44;;;19.75
64600;BMP280;6553;48.412;9.514;2023-04-19T09:06:53;71657.28;;;19.76
64600;BMP280;6553;48.412;9.514;2023-04-19T09:09:28;71650.69;;;19.75
64600;BMP280;6553;48.412;9.514;2023-04-19T09:11:54;71652.38;;;19.74
64600;BMP280;6553;48.412;9.514;2023-04-19T09:14:21;71648.44;;;19.76
64600;BMP280;6553;48.412;9.514;2023-04-19T09:16:47;71647.38;;;19.75
64600;BMP280;6553;48.412;9.514;2023-04-19T09:19:13;71655.56;;;19.77
64600;BMP280;6553;48.412;9.514;2023-04-19T09:21:41;71658.25;;;19.80
64600;BMP280;6553;48.412;9.514;2023-04-19T09:24:07;71655.56;;;19.77
64600;BMP280;6553;48.412;9.514;2023-04-19T09:26:35;71656.75;;;19.76
64600;BMP280;6553;48.412;9.514;2023-04-19T09:29:05;71654.94;;;19.79
64600;BMP280;6553;48.412;9.514;2023-04-19T09:31:36;71656.63;;;19.78
64600;BMP280;6553;48.412;9.514;2023-04-19T09:34:15;71655.47;;;19.80
64600;BMP280;6553;48.412;9.514;2023-04-19T09:36:41;71658.72;;;19.80
64600;BMP280;6553;48.412;9.514;2023-04-19T09:39:07;71657.69;;;19.79
64600;BMP280;6553;48.412;9.514;2023-04-19T09:41:33;71657.16;;;19.79
64600;BMP280;6553;48.412;9.514;2023-04-19T09:44:09;71656.50;;;19.81
64600;BMP280;6553;48.412;9.514;2023-04-19T09:46:36;71657.16;;;19.79
64600;BMP280;6553;48.412;9.514;2023-04-19T09:49:23;71652.69;;;19.80
64600;BMP280;6553;48.412;9.514;2023-04-19T09:51:54;71657.03;;;19.81
64600;BMP280;6553;48.412;9.514;2023-04-19T09:54:22;71657.16;;;19.79
64600;BMP280;6553;48.412;9.514;2023-04-19T09:56:50;71659.28;;;19.81
64600;BMP280;6553;48.412;9.514;2023-04-19T09:59:16;71658.66;;;19.83
64600;BMP280;6553;48.412;9.514;2023-04-19T10:01:53;71658.72;;;19.80
64600;BMP280;6553;48.412;9.514;2023-04-19T10:04:20;71659.06;;;19.86
64600;BMP280;6553;48.412;9.514;2023-04-19T10:06:49;71659.81;;;19.81
64600;BMP280;6553;48.412;9.514;2023-04-19T10:09:18;71659.59;;;19.86
64600;BMP280;6553;48.412;9.514;2023-04-19T10:11:49;71663.41;;;19.87
64600;BMP280;6553;48.412;9.514;2023-04-19T10:14:16;71660.63;;;19.87
64600;BMP280;6553;48.412;9.514;2023-04-19T10:16:44;71666.06;;;19.90
64600;BMP280;6553;48.412;9.514;2023-04-19T10:19:14;71672.16;;;19.90
64600;BMP280;6553;48.412;9.514;2023-04-19T10:21:42;71663.31;;;19.90
64600;BMP280;6553;48.412;9.514;2023-04-19T10:24:09;71672.16;;;19.90
64600;BMP280;6553;48.412;9.514;2023-04-19T10:30:15;71670.44;;;19.91
64600;BMP280;6553;48.412;9.514;2023-04-19T10:32:50;71676.38;;;19.94
64600;BMP280;6553;48.412;9.514;2023-04-19T10:35:54;71681.56;;;20.02
64600;BMP280;6553;48.412;9.514;2023-04-19T10:38:14;71681.16;;;19.99
64600;BMP280;6553;48.412;9.514;2023-04-19T10:41:00;71673.50;;;19.97
64600;BMP280;6553;48.412;9.514;2023-04-19T10:43:31;71678.41;;;19.99
64600;BMP280;6553;48.412;9.514;2023-04-19T10:49:00;71682.09;;;20.02
64600;BMP280;6553;48.412;9.514;2023-04-19T10:51:37;71678.41;;;19.99
64600;BMP280;6553;48.412;9.514;2023-04-19T10:54:05;71680.00;;;20.00
64600;BMP280;6553;48.412;9.514;2023-04-19T11:01:48;71681.03;;;20.01
64600;BMP280;6553;48.412;9.514;2023-04-19T11:09:37;71682.66;;;20.03
64600;BMP280;6553;48.412;9.514;2023-04-19T11:12:18;71678.94;;;19.99
64600;BMP280;6553;48.412;9.514;2023-04-19T11:14:53;71679.88;;;20.03
64600;BMP280;6553;48.412;9.514;2023-04-19T11:17:21;71683.19;;;20.03
64600;BMP280;6553;48.412;9.514;2023-04-19T11:20:08;71681.47;;;20.04
64600;BMP280;6553;48.412;9.514;2023-04-19T11:22:39;71675.50;;;20.01
64600;BMP280;6553;48.412;9.514;2023-04-19T11:25:18;71676.56;;;20.02
64600;BMP280;6553;48.412;9.514;2023-04-19T11:27:50;71684.78;;;20.05
64600;BMP280;6553;48.412;9.514;2023-04-19T11:30:19;71678.81;;;20.02
64600;BMP280;6553;48.412;9.514;2023-04-19T11:32:55;71683.19;;;20.03
64600;BMP280;6553;48.412;9.514;2023-04-19T11:35:23;71683.19;;;20.03
64600;BMP280;6553;48.412;9.514;2023-04-19T11:37:50;71676.56;;;20.02
64600;BMP280;6553;48.412;9.514;2023-04-19T11:40:19;71683.19;;;20.03
64600;BMP280;6553;48.412;9.514;2023-04-19T11:42:45;71680.81;;;20.06
64600;BMP280;6553;48.412;9.514;2023-04-19T11:45:23;71682.53;;;20.05
64600;BMP280;6553;48.412;9.514;2023-04-19T11:47:50;71681.56;;;20.02
64600;BMP280;6553;48.412;9.514;2023-04-19T11:50:45;71678.28;;;20.01
64600;BMP280;6553;48.412;9.514;2023-04-19T11:53:22;71679.88;;;20.03
64600;BMP280;6553;48.412;9.514;2023-04-19T11:56:06;71685.94;;;20.03
64600;BMP280;6553;48.412;9.514;2023-04-19T11:58:44;71681.56;;;20.02
64600;BMP280;6553;48.412;9.514;2023-04-19T12:01:20;71676.03;;;20.02
64600;BMP280;6553;48.412;9.514;2023-04-19T12:03:51;71678.41;;;19.99
64600;BMP280;6553;48.412;9.514;2023-04-19T12:06:25;71676.69;;;20.00
64600;BMP280;6553;48.412;9.514;2023-04-19T12:08:52;71677.31;;;19.98
64600;BMP280;6553;48.412;9.514;2023-04-19T12:11:25;71678.94;;;19.99
64600;BMP280;6553;48.412;9.514;2023-04-19T12:14:15;71681.69;;;19.99
64600;BMP280;6553;48.412;9.514;2023-04-19T12:16:41;71676.81;;;19.97
64600;BMP280;6553;48.412;9.514;2023-04-19T12:19:15;71678.41;;;19.99
64600;BMP280;6553;48.412;9.514;2023-04-19T12:21:46;71673.59;;;19.94
64600;BMP280;6553;48.412;9.514;2023-04-19T12:24:15;71676.69;;;20.00
64600;BMP280;6553;48.412;9.514;2023-04-19T12:26:55;71678.94;;;19.99
64600;BMP280;6553;48.412;9.514;2023-04-19T12:29:26;71673.50;;;19.97
64600;BMP280;6553;48.412;9.514;2023-04-19T12:31:52;71676.81;;;19.97
64600;BMP280;6553;48.412;9.514;2023-04-19T12:34:17;71672.44;;;19.96
64600;BMP280;6553;48.412;9.514;2023-04-19T12:36:43;71672.03;;;19.93
64600;BMP280;6553;48.412;9.514;2023-04-19T12:39:09;71676.38;;;19.94
64600;BMP280;6553;48.412;9.514;2023-04-19T12:41:35;71673.09;;;19.94
64600;BMP280;6553;48.412;9.514;2023-04-19T12:44:00;71674.16;;;19.95
64600;BMP280;6553;48.412;9.514;2023-04-19T12:46:26;71670.84;;;19.94
64600;BMP280;6553;48.412;9.514;2023-04-19T12:48:52;71676.38;;;19.94
64600;BMP280;6553;48.412;9.514;2023-04-19T12:51:17;71674.69;;;19.95
64600;BMP280;6553;48.412;9.514;2023-04-19T12:53:47;71676.81;;;19.97
64600;BMP280;6553;48.412;9.514;2023-04-19T12:56:14;71675.75;;;19.96
64600;BMP280;6553;48.412;9.514;2023-04-19T12:58:40;71672.56;;;19.93
64600;BMP280;6553;48.412;9.514;2023-04-19T13:01:06;71672.56;;;19.93
64600;BMP280;6553;48.412;9.514;2023-04-19T13:03:32;71672.56;;;19.93
64600;BMP280;6553;48.412;9.514;2023-04-19T13:06:02;71667.00;;;19.93
64600;BMP280;6553;48.412;9.514;2023-04-19T13:08:28;71667.25;;;19.88
64600;BMP280;6553;48.412;9.514;2023-04-19T13:10:54;71667.25;;;19.88
64600;BMP280;6553;48.412;9.514;2023-04-19T13:13:21;71673.31;;;19.89
64600;BMP280;6553;48.412;9.514;2023-04-19T13:15:46;71666.06;;;19.90
64600;BMP280;6553;48.412;9.514;2023-04-19T13:18:12;71668.84;;;19.90
64600;BMP280;6553;48.412;9.514;2023-04-19T13:20:38;71667.25;;;19.88
64600;BMP280;6553;48.412;9.514;2023-04-19T13:23:03;71659.06;;;19.86
64600;BMP280;6553;48.412;9.514;2023-04-19T13:25:29;71669.50;;;19.88
64600;BMP280;6553;48.412;9.514;2023-04-19T13:27:55;71663.41;;;19.87
64600;BMP280;6553;48.412;9.514;2023-04-19T13:30:21;71662.91;;;19.87
64600;BMP280;6553;48.412;9.514;2023-04-19T13:32:46;71661.81;;;19.86
64600;BMP280;6553;48.412;9.514;2023-04-19T13:35:12;71661.28;;;19.85
64600;BMP280;6553;48.412;9.514;2023-04-19T13:37:38;71666.72;;;19.88
64600;BMP280;6553;48.412;9.514;2023-04-19T13:40:06;71661.72;;;19.88
64600;BMP280;6553;48.412;9.514;2023-04-19T13:42:32;71664.59;;;19.86
64600;BMP280;6553;48.412;9.514;2023-04-19T13:44:57;71670.66;;;19.86
64600;BMP280;6553;48.412;9.514;2023-04-19T13:47:23;71661.81;;;19.86
64600;BMP280;6553;48.412;9.514;2023-04-19T13:49:49;71652.91;;;19.75
64600;BMP280;6553;48.412;9.514;2023-04-19T13:52:20;71660.75;;;19.85
64600;BMP280;6553;48.412;9.514;2023-04-19T13:54:48;71660.88;;;19.82
64600;BMP280;6553;48.412;9.514;2023-04-19T13:57:14;71659.69;;;19.84
64600;BMP280;6553;48.412;9.514;2023-04-19T13:59:40;71663.53;;;19.85
64600;BMP280;6553;48.412;9.514;2023-04-19T14:02:06;71663.41;;;19.87
64600;BMP280;6553;48.412;9.514;2023-04-19T14:04:32;71659.19;;;19.83
64600;BMP280;6553;48.412;9.514;2023-04-19T14:06:58;71666.19;;;19.87
64600;BMP280;6553;48.412;9.514;2023-04-19T14:09:23;71661.94;;;19.83
64600;BMP280;6553;48.412;9.514;2023-04-19T14:11:50;71660.88;;;19.82
64600;BMP280;6553;48.412;9.514;2023-04-19T14:14:16;71659.19;;;19.83
64600;BMP280;6553;48.412;9.514;2023-04-19T14:16:43;71662.47;;;19.84
64600;BMP280;6553;48.412;9.514;2023-04-19T14:19:09;71655.47;;;19.80
64600;BMP280;6553;48.412;9.514;2023-04-19T14:21:35;71665.66;;;19.87
64600;BMP280;6553;48.412;9.514;2023-04-19T14:24:00;71660.22;;;19.84
64600;BMP280;6553;48.412;9.514;2023-04-19T14:26:26;71665.75;;;19.84
64600;BMP280;6553;48.412;9.514;2023-04-19T14:28:52;71669.59;;;19.85
64600;BMP280;6553;48.412;9.514;2023-04-19T14:31:18;71657.03;;;19.81
64600;BMP280;6553;48.412;9.514;2023-04-19T14:33:44;71656.41;;;19.83
64600;BMP280;6553;48.412;9.514;2023-04-19T14:36:09;71664.06;;;19.85
64600;BMP280;6553;48.412;9.514;2023-04-19T14:38:35;71664.06;;;19.85
64600;BMP280;6553;48.412;9.514;2023-04-19T14:41:01;71663.53;;;19.85
64600;BMP280;6553;48.412;9.514;2023-04-19T14:43:28;71660.75;;;19.85